Αναφορές Αεροδρομίων

 

KSJC - San Jose, California, USA
Distance from station: ΒΑ 14km
Ενημερώθηκε: 27/11/2021 13:53
Αίθριος
Αίθριος
 Ανεμος από calm
Ανεμος: Απνοια
Θερμοκρασία: 8°C
Σημείο Δρόσου: 4°C
Υγρασία: 76%
Βαρόμετρο: 1020.3 hPa
Clouds: Αίθριος
Visibility: 16 km
2021/11/27 11:53 KSJC 271153Z AUTO 00000KT 10SM CLR 08/04 A3013 RMK AO2 SLP202 T00830044 10122 20072 57003
KNUQ - Moffett Nas/Mtn, California, USA
Distance from station: Β 14km
Ενημερώθηκε: 27/11/2021 13:55
Αίθριος
Αίθριος
 Ανεμος από calm
Ανεμος: Απνοια
Θερμοκρασία: 8°C
Σημείο Δρόσου: 5°C
Υγρασία: 82%
Βαρόμετρο: 1020.3 hPa
Clouds: Αίθριος
Visibility: 16 km
2021/11/27 11:55 KNUQ 271155Z AUTO 00000KT 10SM CLR 08/05 A3013 RMK AO2
 
KPAO - Palo Alto, California, USA
Distance from station: ΒΒΔ 23km
Ενημερώθηκε: 27/11/2021 06:47
NOT Current
Αίθριος
Αίθριος
 Ανεμος από calm
Ανεμος: Απνοια
Θερμοκρασία: 11°C
Σημείο Δρόσου: 7°C
Υγρασία: 77%
Βαρόμετρο: 1021 hPa
Clouds: Αίθριος
Visibility: 16 km
2021/11/27 04:47 KPAO 270447Z 00000KT 10SM SKC 11/07 A3015 RMK LAST
KRHV - San Jose/Reid, California, USA
Distance from station: ΑΒΑ 19km
Ενημερώθηκε: 27/11/2021 07:50
NOT Current
Αίθριος
Αίθριος
 Ανεμος από varies
Ανεμος: varies 6 km/h
Θερμοκρασία: 11°C
Σημείο Δρόσου: 7°C
Υγρασία: 77%
Βαρόμετρο: 1021 hPa
Clouds: Αίθριος
Visibility: 16 km
2021/11/27 05:50 KRHV 270550Z VRB03KT 10SM SKC 11/07 A3015 RMK LAST
 
KOAK - Oakland, California, USA
Distance from station: ΒΒΔ 50km
Ενημερώθηκε: 27/11/2021 13:53
Αίθριος
Αίθριος
 Ανεμος από ΑΒΑ
Ανεμος: ΑΒΑ 6 km/h
Θερμοκρασία: 8°C
Σημείο Δρόσου: 4°C
Υγρασία: 76%
Βαρόμετρο: 1020.7 hPa
Clouds: Αίθριος
Visibility: 16 km
2021/11/27 11:53 KOAK 271153Z 07003KT 10SM CLR 08/04 A3014 RMK AO2 SLP205 T00780039 10106 20078 58003
KSQL - San Carlos Airpo, California, USA
Distance from station: ΒΔ 34km
Ενημερώθηκε: 27/11/2021 13:55
Αίθριος
Αίθριος
 Ανεμος από calm
Ανεμος: Απνοια
Θερμοκρασία: 9°C
Σημείο Δρόσου: 4°C
Υγρασία: 71%
Βαρόμετρο: 1020.7 hPa
Clouds: Αίθριος
Visibility: 16 km
2021/11/27 11:55 KSQL 271155Z AUTO 00000KT 10SM CLR 09/04 A3014 RMK AO2
 
KSFO - San Francisco, California, USA
Distance from station: ΒΔ 49km
Ενημερώθηκε: 27/11/2021 13:56
Few Clouds
Few Clouds
 Ανεμος από calm
Ανεμος: Απνοια
Θερμοκρασία: 10°C
Σημείο Δρόσου: 6°C
Υγρασία: 76%
Βαρόμετρο: 1020.3 hPa
Clouds: Few Clouds
Visibility: 16 km
Cloud details: Few Clouds 6096 m
2021/11/27 11:56 KSFO 271156Z 00000KT 10SM FEW200 10/06 A3013 RMK AO2 SLP201 T01000061 10128 20094 58002 $
KE16 - San Martin, California, USA
Distance from station: ΑΝΑ 43km
Ενημερώθηκε: 27/11/2021 13:35
Αίθριος
Αίθριος
 Ανεμος από calm
Ανεμος: Απνοια
Θερμοκρασία: 6°C
Σημείο Δρόσου: 4°C
Υγρασία: 87%
Βαρόμετρο: 1021 hPa
Clouds: Αίθριος
Visibility: 16 km
2021/11/27 11:35 KE16 271135Z AUTO 00000KT 10SM CLR 06/04 A3015 RMK AO2 PWINO PNO
 
KWVI - Watsonville, California, USA
Distance from station: ΝΝΑ 44km
Ενημερώθηκε: 27/11/2021 13:53
Αίθριος
Αίθριος
 Ανεμος από calm
Ανεμος: Απνοια
Θερμοκρασία: 7°C
Σημείο Δρόσου: 4°C
Υγρασία: 81%
Βαρόμετρο: 1020 hPa
Clouds: Αίθριος
Visibility: 16 km
2021/11/27 11:53 KWVI 271153Z AUTO 00000KT 10SM CLR 07/04 A3012 RMK AO2 SLP199 T00670044 10100 20061 58003
KHAF - Half Moon Bay, California, USA
Distance from station: ΔΒΔ 50km
Ενημερώθηκε: 27/11/2021 13:55

 Ανεμος από calm
Ανεμος: Απνοια
Θερμοκρασία: 6°C
Σημείο Δρόσου: 5°C
Υγρασία: 93%
Βαρόμετρο: 1019.6 hPa
Visibility: 16 km
2021/11/27 11:55 KHAF 271155Z AUTO 00000KT 10SM 06/05 A3011 RMK AO2
 
KHWD - Hayward, California, USA
Distance from station: Β 44km
Ενημερώθηκε: 27/11/2021 13:54
Αίθριος
Αίθριος
 Ανεμος από Α
Ανεμος: Α 6 km/h
Θερμοκρασία: 9°C
Σημείο Δρόσου: 4°C
Υγρασία: 71%
Βαρόμετρο: 1020.3 hPa
Clouds: Αίθριος
Visibility: 16 km
2021/11/27 11:54 KHWD 271154Z AUTO 08003KT 10SM CLR 09/04 A3013 RMK AO2 SLP211 T00890039 10117 20089 58004
KLVK - Livermore, California, USA
Distance from station: ΒΒΑ 51km
Ενημερώθηκε: 27/11/2021 13:53
Mist, Αίθριος
Mist, Αίθριος
 Ανεμος από calm
Ανεμος: Απνοια
Θερμοκρασία: 6°C
Σημείο Δρόσου: 3°C
Υγρασία: 81%
Βαρόμετρο: 1020.7 hPa
Περίληψη: Mist
Clouds: Αίθριος
Visibility: 8 km
2021/11/27 11:53 KLVK 271153Z AUTO 00000KT 5SM BR CLR 06/03 A3014 RMK AO2 SLP204 T00560033 10089 20056 56003